createdAt,value
2022-11-17T00:02:04.312Z,7.82
2022-11-17T00:04:32.142Z,7.89
2022-11-17T00:07:00.838Z,7.87
2022-11-17T00:09:30.102Z,7.89
2022-11-17T00:12:18.046Z,7.90
2022-11-17T00:14:50.246Z,7.87
2022-11-17T00:17:18.239Z,7.87
2022-11-17T00:20:03.450Z,7.90
2022-11-17T00:22:34.139Z,7.90
2022-11-17T00:25:03.380Z,7.93
2022-11-17T00:27:31.324Z,7.93
2022-11-17T00:29:59.246Z,7.93
2022-11-17T00:32:44.744Z,7.86
2022-11-17T00:35:12.518Z,7.95
2022-11-17T00:38:04.714Z,7.95
2022-11-17T00:40:34.041Z,7.97
2022-11-17T00:43:01.956Z,7.96
2022-11-17T00:45:29.762Z,7.96
2022-11-17T00:47:57.663Z,7.94
2022-11-17T00:50:25.543Z,7.97
2022-11-17T00:52:53.342Z,7.98
2022-11-17T00:55:21.313Z,8.00
2022-11-17T00:57:51.681Z,7.98
2022-11-17T01:00:21.259Z,8.00
2022-11-17T01:02:49.068Z,7.98
2022-11-17T01:05:17.187Z,7.95
2022-11-17T01:07:46.892Z,7.93
2022-11-17T01:10:14.818Z,7.93
2022-11-17T01:12:42.894Z,7.95
2022-11-17T01:15:13.905Z,7.97
2022-11-17T01:17:42.938Z,7.97
2022-11-17T01:20:11.548Z,7.98
2022-11-17T01:22:39.415Z,7.96
2022-11-17T01:25:09.765Z,7.95
2022-11-17T01:27:37.651Z,7.96
2022-11-17T01:30:06.581Z,7.95
2022-11-17T01:32:36.253Z,7.94
2022-11-17T01:35:04.215Z,7.97
2022-11-17T01:37:32.240Z,7.99
2022-11-17T01:40:00.006Z,7.98
2022-11-17T01:42:28.555Z,7.96
2022-11-17T01:45:06.354Z,7.99
2022-11-17T01:47:45.128Z,7.99
2022-11-17T01:50:25.069Z,8.02
2022-11-17T01:52:56.391Z,8.03
2022-11-17T01:55:26.897Z,8.01
2022-11-17T01:57:59.599Z,8.03
2022-11-17T02:00:28.365Z,8.04
2022-11-17T02:02:58.066Z,8.05
2022-11-17T02:05:40.947Z,8.04
2022-11-17T02:08:12.431Z,8.00
2022-11-17T02:10:41.280Z,8.02
2022-11-17T02:13:10.466Z,8.03
2022-11-17T02:15:38.521Z,7.99
2022-11-17T02:18:08.359Z,7.95
2022-11-17T02:21:06.161Z,7.91
2022-11-17T02:24:08.605Z,7.84
2022-11-17T02:27:16.586Z,7.77
2022-11-17T02:29:53.974Z,7.70
2022-11-17T02:32:30.066Z,7.68
2022-11-17T02:35:06.188Z,7.67
2022-11-17T02:37:43.675Z,7.60
2022-11-17T02:40:19.777Z,7.60
2022-11-17T02:43:12.006Z,7.52
2022-11-17T02:45:46.609Z,7.46
2022-11-17T02:48:19.697Z,7.45
2022-11-17T02:50:52.568Z,7.34
2022-11-17T02:53:24.711Z,7.36
2022-11-17T02:55:54.491Z,7.31
2022-11-17T02:58:23.550Z,7.27
2022-11-17T03:01:16.110Z,7.31
2022-11-17T03:03:57.078Z,7.25
2022-11-17T03:06:42.301Z,7.24
2022-11-17T03:09:16.727Z,7.28
2022-11-17T03:11:49.376Z,7.25
2022-11-17T03:14:26.538Z,7.22
2022-11-17T03:17:02.858Z,7.21
2022-11-17T03:19:39.426Z,7.22
2022-11-17T03:22:15.602Z,7.20
2022-11-17T03:24:50.789Z,7.17
2022-11-17T03:27:25.737Z,7.20
2022-11-17T03:30:00.139Z,7.14
2022-11-17T03:32:34.015Z,7.17
2022-11-17T03:35:07.620Z,7.16
2022-11-17T03:37:38.437Z,7.09
2022-11-17T03:40:10.734Z,7.14
2022-11-17T03:42:43.174Z,7.12
2022-11-17T03:45:20.085Z,7.15
2022-11-17T03:47:52.893Z,7.11
2022-11-17T03:50:29.095Z,7.14
2022-11-17T03:52:58.403Z,7.11
2022-11-17T03:55:36.073Z,7.12
2022-11-17T03:58:08.115Z,7.11
2022-11-17T04:00:39.904Z,7.09
2022-11-17T04:03:10.643Z,7.10
2022-11-17T04:05:39.823Z,7.07
2022-11-17T04:08:07.885Z,7.03
2022-11-17T04:10:56.518Z,7.06
2022-11-17T04:13:42.187Z,6.95
2022-11-17T04:16:10.890Z,7.03
2022-11-17T04:18:40.199Z,6.99
2022-11-17T04:21:10.950Z,7.05
2022-11-17T04:23:38.873Z,7.00
2022-11-17T04:26:24.274Z,7.01
2022-11-17T04:29:00.987Z,7.00
2022-11-17T04:31:42.555Z,6.97
2022-11-17T04:34:13.047Z,6.97
2022-11-17T04:36:44.369Z,6.95
2022-11-17T04:39:13.714Z,6.89
2022-11-17T04:42:03.389Z,6.86
2022-11-17T04:44:33.279Z,6.85
2022-11-17T04:47:03.761Z,6.86
2022-11-17T04:49:36.866Z,6.81
2022-11-17T04:52:05.012Z,6.84
2022-11-17T04:54:33.094Z,6.81
2022-11-17T04:57:06.742Z,6.79
2022-11-17T04:59:41.102Z,6.79
2022-11-17T05:02:10.567Z,6.78
2022-11-17T05:04:58.580Z,6.72
2022-11-17T05:07:29.756Z,6.75
2022-11-17T05:10:00.301Z,6.73
2022-11-17T05:12:46.325Z,6.70
2022-11-17T05:15:35.363Z,6.66
2022-11-17T05:18:03.684Z,6.65
2022-11-17T05:20:35.144Z,6.64
2022-11-17T05:23:20.905Z,6.64
2022-11-17T05:25:55.828Z,6.63
2022-11-17T05:28:26.071Z,6.60
2022-11-17T05:30:57.039Z,6.59
2022-11-17T05:33:27.008Z,6.55
2022-11-17T05:35:59.136Z,6.50
2022-11-17T05:38:32.716Z,6.51
2022-11-17T05:41:09.252Z,6.48
2022-11-17T05:43:42.034Z,6.46
2022-11-17T05:46:11.235Z,6.45
2022-11-17T05:48:43.509Z,6.44
2022-11-17T05:51:13.299Z,6.40
2022-11-17T05:53:42.718Z,6.44
2022-11-17T05:56:23.943Z,6.39
2022-11-17T05:58:56.161Z,6.33
2022-11-17T06:01:28.048Z,6.36
2022-11-17T06:04:03.815Z,6.34
2022-11-17T06:06:36.673Z,6.35
2022-11-17T06:09:05.826Z,6.30
2022-11-17T06:11:39.664Z,6.31
2022-11-17T06:14:10.581Z,6.28
2022-11-17T06:16:46.935Z,6.29
2022-11-17T06:19:23.084Z,6.19
2022-11-17T06:22:11.665Z,6.26
2022-11-17T06:24:41.759Z,6.29
2022-11-17T06:27:10.837Z,6.24
2022-11-17T06:29:43.885Z,6.24
2022-11-17T06:32:13.267Z,6.25
2022-11-17T06:34:43.573Z,6.25
2022-11-17T06:37:13.151Z,6.24
2022-11-17T06:39:41.215Z,6.17
2022-11-17T06:42:12.306Z,6.21
2022-11-17T06:44:42.802Z,6.22
2022-11-17T06:47:14.731Z,6.19
2022-11-17T06:49:42.729Z,6.21
2022-11-17T06:52:18.746Z,6.18
2022-11-17T06:54:47.717Z,6.14
2022-11-17T06:57:17.024Z,6.20
2022-11-17T06:59:46.487Z,6.21
2022-11-17T07:02:14.614Z,6.19
2022-11-17T07:04:42.602Z,6.24
2022-11-17T07:07:13.210Z,6.22
2022-11-17T07:09:42.725Z,6.23
2022-11-17T07:12:10.687Z,6.22
2022-11-17T07:14:38.513Z,6.22
2022-11-17T07:17:07.713Z,6.24
2022-11-17T07:19:35.786Z,6.21
2022-11-17T07:22:09.260Z,6.22
2022-11-17T07:24:40.782Z,6.28
2022-11-17T07:27:08.802Z,6.24
2022-11-17T07:29:36.916Z,6.23
2022-11-17T07:32:06.251Z,6.26
2022-11-17T07:34:34.210Z,6.14
2022-11-17T07:37:02.305Z,6.21
2022-11-17T07:39:30.321Z,6.23
2022-11-17T07:41:59.760Z,6.23
2022-11-17T07:44:47.026Z,6.13
2022-11-17T07:47:16.167Z,6.19
2022-11-17T07:49:45.651Z,6.25
2022-11-17T07:52:13.874Z,6.23
2022-11-17T07:54:41.902Z,6.23
2022-11-17T07:57:15.955Z,6.23
2022-11-17T07:59:48.047Z,6.21
2022-11-17T08:02:16.161Z,6.15
2022-11-17T08:04:44.071Z,6.20
2022-11-17T08:07:17.779Z,6.15
2022-11-17T08:09:45.686Z,6.21
2022-11-17T08:12:14.951Z,6.18
2022-11-17T08:14:46.937Z,6.18
2022-11-17T08:17:17.584Z,6.11
2022-11-17T08:19:49.089Z,6.21
2022-11-17T08:22:17.041Z,6.22
2022-11-17T08:24:45.052Z,6.22
2022-11-17T08:27:15.991Z,6.24
2022-11-17T08:29:43.974Z,6.26
2022-11-17T08:32:13.938Z,6.17
2022-11-17T08:34:42.107Z,6.24
2022-11-17T08:37:10.141Z,6.21
2022-11-17T08:39:38.870Z,6.19
2022-11-17T08:42:06.825Z,6.18
2022-11-17T08:44:36.402Z,6.21
2022-11-17T08:47:07.323Z,6.23
2022-11-17T08:49:35.532Z,6.28
2022-11-17T08:52:03.650Z,6.24
2022-11-17T08:54:34.001Z,6.27
2022-11-17T08:57:01.952Z,6.22
2022-11-17T08:59:32.449Z,6.25
2022-11-17T09:02:01.837Z,6.25
2022-11-17T09:04:34.291Z,6.23
2022-11-17T09:07:02.187Z,6.24
2022-11-17T09:09:31.704Z,6.23
2022-11-17T09:12:00.089Z,6.23
2022-11-17T09:14:28.353Z,6.25
2022-11-17T09:16:56.109Z,6.27
2022-11-17T09:19:25.354Z,6.28
2022-11-17T09:21:53.306Z,6.33
2022-11-17T09:24:21.358Z,6.33
2022-11-17T09:26:52.318Z,6.30
2022-11-17T09:29:20.269Z,6.26
2022-11-17T09:31:48.376Z,6.30
2022-11-17T09:34:16.575Z,6.31
2022-11-17T09:36:48.986Z,6.34
2022-11-17T09:39:17.977Z,6.33
2022-11-17T09:41:48.180Z,6.38
2022-11-17T09:44:39.660Z,6.41
2022-11-17T09:47:20.876Z,6.35
2022-11-17T09:49:59.049Z,6.35
2022-11-17T09:52:34.474Z,6.35
2022-11-17T09:55:05.992Z,6.30
2022-11-17T09:57:39.981Z,6.36
2022-11-17T10:00:15.126Z,6.32
2022-11-17T10:02:43.923Z,6.36
2022-11-17T10:05:16.877Z,6.35
2022-11-17T10:07:50.541Z,6.43
2022-11-17T10:10:23.714Z,6.49
2022-11-17T10:12:58.338Z,6.50
2022-11-17T10:15:30.643Z,6.46
2022-11-17T10:17:58.442Z,6.49
2022-11-17T10:20:27.498Z,6.47
2022-11-17T10:22:57.878Z,6.55
2022-11-17T10:25:38.422Z,6.56
2022-11-17T10:28:08.803Z,6.52
2022-11-17T10:30:37.068Z,6.50
2022-11-17T10:33:05.676Z,6.50
2022-11-17T10:35:35.425Z,6.53
2022-11-17T10:38:07.502Z,6.53
2022-11-17T10:40:49.018Z,6.50
2022-11-17T10:43:26.126Z,6.51
2022-11-17T10:45:57.632Z,6.54
2022-11-17T10:48:28.753Z,6.53
2022-11-17T10:50:58.502Z,6.49
2022-11-17T10:53:32.508Z,6.53
2022-11-17T10:56:08.209Z,6.52
2022-11-17T10:58:58.856Z,6.59
2022-11-17T11:01:32.709Z,6.54
2022-11-17T11:04:00.741Z,6.48
2022-11-17T11:06:30.612Z,6.47
2022-11-17T11:09:03.227Z,6.59
2022-11-17T11:11:42.243Z,6.54
2022-11-17T11:14:23.137Z,6.49
2022-11-17T11:16:52.039Z,6.53
2022-11-17T11:19:21.154Z,6.50
2022-11-17T11:22:07.706Z,6.51
2022-11-17T11:24:46.189Z,6.60
2022-11-17T11:27:31.393Z,6.49
2022-11-17T11:30:03.767Z,6.50
2022-11-17T11:32:41.969Z,6.59
2022-11-17T11:35:45.821Z,6.58
2022-11-17T11:38:28.974Z,6.66
2022-11-17T11:41:12.583Z,6.69
2022-11-17T11:43:52.671Z,6.76
2022-11-17T11:46:27.299Z,6.69
2022-11-17T11:48:58.240Z,6.69
2022-11-17T11:51:30.595Z,6.72
2022-11-17T11:54:03.045Z,6.77
2022-11-17T11:56:35.872Z,6.76
2022-11-17T11:59:07.493Z,6.73
2022-11-17T12:01:44.837Z,6.77
2022-11-17T12:04:26.611Z,6.84
2022-11-17T12:07:01.918Z,6.91
2022-11-17T12:09:56.928Z,6.89
2022-11-17T12:12:31.869Z,6.93
2022-11-17T12:15:12.929Z,7.04
2022-11-17T12:17:59.317Z,6.98
2022-11-17T12:20:57.034Z,7.03
2022-11-17T12:23:40.953Z,7.08
2022-11-17T12:26:09.295Z,7.07
2022-11-17T12:28:40.241Z,7.04
2022-11-17T12:31:11.486Z,7.06
2022-11-17T12:34:27.619Z,7.13
2022-11-17T12:37:19.401Z,7.23
2022-11-17T12:39:56.510Z,7.21
2022-11-17T12:42:24.998Z,7.30
2022-11-17T12:45:09.158Z,7.30
2022-11-17T12:47:39.113Z,7.32
2022-11-17T12:50:49.649Z,7.46
2022-11-17T12:53:38.874Z,7.53
2022-11-17T12:56:22.176Z,7.52
2022-11-17T12:59:14.571Z,7.52
2022-11-17T13:01:54.523Z,7.65
2022-11-17T13:04:28.826Z,7.61
2022-11-17T13:07:01.779Z,7.65
2022-11-17T13:09:31.496Z,7.61
2022-11-17T13:12:01.207Z,7.65
2022-11-17T13:14:29.253Z,7.62
2022-11-17T13:17:00.091Z,7.62
2022-11-17T13:19:41.402Z,7.60
2022-11-17T13:22:16.641Z,7.56
2022-11-17T13:24:47.301Z,7.52
2022-11-17T13:27:25.731Z,7.58
2022-11-17T13:30:12.693Z,7.57
2022-11-17T13:32:42.713Z,7.61
2022-11-17T13:35:21.911Z,7.61
2022-11-17T13:38:06.700Z,7.66
2022-11-17T13:40:37.254Z,7.69
2022-11-17T13:43:06.313Z,7.70
2022-11-17T13:45:34.469Z,7.78
2022-11-17T13:48:03.774Z,7.82
2022-11-17T13:50:39.565Z,7.75
2022-11-17T13:53:26.206Z,7.77
2022-11-17T13:55:54.372Z,7.71
2022-11-17T13:58:27.348Z,7.65
2022-11-17T14:00:57.772Z,7.69
2022-11-17T14:03:34.399Z,7.67
2022-11-17T14:06:03.669Z,7.73
2022-11-17T14:08:33.920Z,7.69
2022-11-17T14:11:23.412Z,7.67
2022-11-17T14:13:53.922Z,7.67
2022-11-17T14:16:26.595Z,7.66
2022-11-17T14:19:01.649Z,7.64
2022-11-17T14:21:30.516Z,7.69
2022-11-17T14:24:12.429Z,7.72
2022-11-17T14:26:45.364Z,7.72
2022-11-17T14:29:14.502Z,7.75
2022-11-17T14:31:43.242Z,7.73
2022-11-17T14:34:12.988Z,7.73
2022-11-17T14:36:42.298Z,7.70
2022-11-17T14:39:18.692Z,7.67
2022-11-17T14:41:48.653Z,7.72
2022-11-17T14:44:19.304Z,7.73
2022-11-17T14:46:47.155Z,7.74
2022-11-17T14:49:16.732Z,7.75
2022-11-17T14:51:48.725Z,7.75
2022-11-17T14:54:16.645Z,7.78
2022-11-17T14:56:44.613Z,7.75
2022-11-17T14:59:12.545Z,7.73
2022-11-17T15:01:41.173Z,7.73
2022-11-17T15:04:34.367Z,7.70
2022-11-17T15:06:58.414Z,7.69
2022-11-17T15:09:26.523Z,7.71
2022-11-17T15:11:54.468Z,7.73
2022-11-17T15:14:22.831Z,7.76
2022-11-17T15:16:56.970Z,7.79
2022-11-17T15:19:24.967Z,7.79
2022-11-17T15:21:53.085Z,7.78
2022-11-17T15:24:23.140Z,7.81
2022-11-17T15:26:50.906Z,7.83
2022-11-17T15:29:19.029Z,7.86
2022-11-17T15:31:47.437Z,7.84
2022-11-17T15:34:20.218Z,7.87
2022-11-17T15:36:56.645Z,7.89
2022-11-17T15:39:26.079Z,7.90
2022-11-17T15:41:54.092Z,7.94
2022-11-17T15:44:21.991Z,7.94
2022-11-17T15:46:49.897Z,7.95
2022-11-17T15:49:18.230Z,7.93
2022-11-17T15:51:46.504Z,7.95
2022-11-17T15:54:20.322Z,7.94
2022-11-17T15:56:51.080Z,7.94
2022-11-17T15:59:19.790Z,7.88
2022-11-17T16:01:47.905Z,7.89
2022-11-17T16:04:17.028Z,7.90
2022-11-17T16:06:46.776Z,7.97
2022-11-17T16:09:15.733Z,7.94
2022-11-17T16:11:44.124Z,7.92
2022-11-17T16:14:14.847Z,7.95
2022-11-17T16:16:48.457Z,7.98
2022-11-17T16:19:18.920Z,8.07
2022-11-17T16:21:47.190Z,8.04
2022-11-17T16:24:15.237Z,8.08
2022-11-17T16:26:44.914Z,8.04
2022-11-17T16:29:17.585Z,8.03
2022-11-17T16:31:47.977Z,7.96
2022-11-17T16:34:22.815Z,7.93
2022-11-17T16:36:51.128Z,7.89
2022-11-17T16:39:20.267Z,7.96
2022-11-17T16:41:50.138Z,8.00
2022-11-17T16:44:20.338Z,7.97
2022-11-17T16:46:49.714Z,7.91
2022-11-17T16:49:20.027Z,7.87
2022-11-17T16:51:50.203Z,7.81
2022-11-17T16:54:18.981Z,7.74
2022-11-17T16:56:47.297Z,7.73
2022-11-17T16:59:16.106Z,7.69
2022-11-17T17:01:46.277Z,7.69
2022-11-17T17:04:14.202Z,7.70
2022-11-17T17:06:43.615Z,7.75
2022-11-17T17:09:14.311Z,7.71
2022-11-17T17:11:43.113Z,7.70
2022-11-17T17:14:14.108Z,7.77
2022-11-17T17:16:43.442Z,7.75
2022-11-17T17:19:14.129Z,7.75
2022-11-17T17:21:43.511Z,7.73
2022-11-17T17:24:11.891Z,7.75
2022-11-17T17:26:41.319Z,7.73
2022-11-17T17:29:11.503Z,7.77
2022-11-17T17:31:41.215Z,7.77
2022-11-17T17:34:10.190Z,7.74
2022-11-17T17:36:39.568Z,7.74
2022-11-17T17:39:08.210Z,7.75
2022-11-17T17:41:40.995Z,7.78
2022-11-17T17:44:11.424Z,7.76
2022-11-17T17:46:39.907Z,7.79
2022-11-17T17:49:07.994Z,7.79
2022-11-17T17:51:41.659Z,7.79
2022-11-17T17:54:15.579Z,7.81
2022-11-17T17:56:43.691Z,7.77
2022-11-17T17:59:11.646Z,7.80
2022-11-17T18:01:40.798Z,7.80
2022-11-17T18:04:15.327Z,7.77
2022-11-17T18:06:48.101Z,7.80
2022-11-17T18:09:19.555Z,7.78
2022-11-17T18:11:49.804Z,7.79
2022-11-17T18:14:22.450Z,7.80
2022-11-17T18:16:51.229Z,7.78
2022-11-17T18:19:20.004Z,7.75
2022-11-17T18:21:49.369Z,7.74
2022-11-17T18:24:17.405Z,7.72
2022-11-17T18:26:46.434Z,7.69
2022-11-17T18:29:18.497Z,7.68
2022-11-17T18:31:55.318Z,7.65
2022-11-17T18:34:43.605Z,7.58
2022-11-17T18:37:12.912Z,7.56
2022-11-17T18:39:43.098Z,7.56
2022-11-17T18:42:11.143Z,7.57
2022-11-17T18:44:43.189Z,7.55
2022-11-17T18:47:11.514Z,7.49
2022-11-17T18:49:39.380Z,7.50
2022-11-17T18:52:07.807Z,7.42
2022-11-17T18:54:37.186Z,7.36
2022-11-17T18:57:05.044Z,7.34
2022-11-17T18:59:33.976Z,7.28
2022-11-17T19:02:02.085Z,7.29
2022-11-17T19:04:30.637Z,7.25
2022-11-17T19:06:58.666Z,7.22
2022-11-17T19:09:28.924Z,7.21
2022-11-17T19:11:58.476Z,7.18
2022-11-17T19:14:26.681Z,7.13
2022-11-17T19:16:55.968Z,7.11
2022-11-17T19:19:23.907Z,7.11
2022-11-17T19:21:52.157Z,7.06
2022-11-17T19:24:20.325Z,7.08
2022-11-17T19:26:48.339Z,7.02
2022-11-17T19:29:17.924Z,7.01
2022-11-17T19:31:47.549Z,7.01
2022-11-17T19:34:16.311Z,6.97
2022-11-17T19:36:45.250Z,6.95
2022-11-17T19:39:14.551Z,6.95
2022-11-17T19:41:44.116Z,6.92
2022-11-17T19:44:12.451Z,6.93
2022-11-17T19:46:42.656Z,6.92
2022-11-17T19:49:12.761Z,6.88
2022-11-17T19:51:41.381Z,6.94
2022-11-17T19:54:11.295Z,6.85
2022-11-17T19:56:39.410Z,6.89
2022-11-17T19:59:10.958Z,6.90
2022-11-17T20:01:45.802Z,6.88
2022-11-17T20:04:14.319Z,6.87
2022-11-17T20:06:42.217Z,6.88
2022-11-17T20:09:12.377Z,6.85
2022-11-17T20:11:41.254Z,6.84
2022-11-17T20:14:09.724Z,6.77
2022-11-17T20:16:38.830Z,6.81
2022-11-17T20:19:08.221Z,6.80
2022-11-17T20:21:36.817Z,6.75
2022-11-17T20:24:04.996Z,6.84
2022-11-17T20:26:35.203Z,6.78
2022-11-17T20:29:03.336Z,6.80
2022-11-17T20:31:33.502Z,6.82
2022-11-17T20:34:02.958Z,6.80
2022-11-17T20:36:35.468Z,6.82
2022-11-17T20:39:07.755Z,6.80
2022-11-17T20:41:36.062Z,6.77
2022-11-17T20:44:04.214Z,6.77
2022-11-17T20:46:34.639Z,6.80
2022-11-17T20:49:04.974Z,6.78
2022-11-17T20:51:34.172Z,6.78
2022-11-17T20:54:03.432Z,6.80
2022-11-17T20:56:31.379Z,6.76
2022-11-17T20:58:59.513Z,6.75
2022-11-17T21:01:28.016Z,6.73
2022-11-17T21:03:55.984Z,6.73
2022-11-17T21:06:24.993Z,6.72
2022-11-17T21:08:54.512Z,6.71
2022-11-17T21:11:41.780Z,6.71
2022-11-17T21:14:13.295Z,6.68
2022-11-17T21:16:45.563Z,6.66
2022-11-17T21:19:23.291Z,6.57
2022-11-17T21:21:53.352Z,6.60
2022-11-17T21:24:22.856Z,6.63
2022-11-17T21:26:51.799Z,6.62
2022-11-17T21:29:19.900Z,6.63
2022-11-17T21:31:48.144Z,6.62
2022-11-17T21:34:19.792Z,6.62
2022-11-17T21:36:47.860Z,6.61
2022-11-17T21:39:18.669Z,6.57
2022-11-17T21:41:48.849Z,6.53
2022-11-17T21:44:17.093Z,6.50
2022-11-17T21:46:50.182Z,6.59
2022-11-17T21:49:18.317Z,6.52
2022-11-17T21:51:48.121Z,6.53
2022-11-17T21:54:17.206Z,6.58
2022-11-17T21:56:46.127Z,6.58
2022-11-17T21:59:20.080Z,6.50
2022-11-17T22:01:50.332Z,6.56
2022-11-17T22:04:21.106Z,6.55
2022-11-17T22:06:49.157Z,6.51
2022-11-17T22:09:19.431Z,6.52
2022-11-17T22:11:47.497Z,6.49
2022-11-17T22:14:19.222Z,6.45
2022-11-17T22:16:48.943Z,6.42
2022-11-17T22:19:18.769Z,6.42
2022-11-17T22:21:49.111Z,6.34
2022-11-17T22:24:17.075Z,6.43
2022-11-17T22:26:45.810Z,6.38
2022-11-17T22:29:18.336Z,6.44
2022-11-17T22:31:47.307Z,6.44
2022-11-17T22:34:16.660Z,6.44
2022-11-17T22:36:45.311Z,6.41
2022-11-17T22:39:13.489Z,6.40
2022-11-17T22:41:41.834Z,6.41
2022-11-17T22:44:13.337Z,6.37
2022-11-17T22:46:44.000Z,6.40
2022-11-17T22:49:12.018Z,6.42
2022-11-17T22:51:57.416Z,6.44
2022-11-17T22:54:25.282Z,6.46
2022-11-17T22:56:53.137Z,6.46
2022-11-17T22:59:23.373Z,6.47
2022-11-17T23:01:52.766Z,6.46
2022-11-17T23:04:23.038Z,6.48
2022-11-17T23:06:51.322Z,6.48
2022-11-17T23:09:22.278Z,6.49
2022-11-17T23:11:50.485Z,6.50
2022-11-17T23:14:21.475Z,6.48
2022-11-17T23:16:49.336Z,6.54
2022-11-17T23:19:21.523Z,6.49
2022-11-17T23:21:49.533Z,6.54
2022-11-17T23:24:20.209Z,6.54
2022-11-17T23:26:48.229Z,6.52
2022-11-17T23:29:16.486Z,6.54
2022-11-17T23:31:44.499Z,6.54
2022-11-17T23:34:12.393Z,6.56
2022-11-17T23:36:41.701Z,6.59
2022-11-17T23:39:09.736Z,6.60
2022-11-17T23:41:37.620Z,6.60
2022-11-17T23:44:05.895Z,6.56
2022-11-17T23:46:34.989Z,6.66
2022-11-17T23:49:05.675Z,6.58
2022-11-17T23:51:33.785Z,6.58
2022-11-17T23:54:03.793Z,6.58
2022-11-17T23:56:33.676Z,6.61
2022-11-17T23:59:01.624Z,6.63
